createdAt,value
2023-02-13T00:00:41.566Z,-7.78
2023-02-13T00:03:15.326Z,-7.74
2023-02-13T00:05:48.571Z,-7.67
2023-02-13T00:08:21.701Z,-7.57
2023-02-13T00:10:55.661Z,-7.48
2023-02-13T00:13:29.435Z,-7.41
2023-02-13T00:16:04.636Z,-7.36
2023-02-13T00:18:39.831Z,-7.30
2023-02-13T00:21:15.179Z,-7.26
2023-02-13T00:23:48.469Z,-7.22
2023-02-13T00:26:21.806Z,-7.18
2023-02-13T00:28:55.313Z,-7.16
2023-02-13T00:31:30.135Z,-7.16
2023-02-13T00:34:03.311Z,-7.15
2023-02-13T00:36:36.585Z,-7.13
2023-02-13T00:39:10.304Z,-7.12
2023-02-13T00:41:43.145Z,-7.11
2023-02-13T00:44:16.700Z,-7.07
2023-02-13T00:46:50.082Z,-7.02
2023-02-13T00:49:23.247Z,-6.98
2023-02-13T00:51:56.485Z,-6.97
2023-02-13T00:54:29.700Z,-7.04
2023-02-13T00:57:03.028Z,-6.94
2023-02-13T00:59:36.159Z,-6.94
2023-02-13T01:02:09.387Z,-6.93
2023-02-13T01:04:42.533Z,-6.91
2023-02-13T01:07:16.716Z,-6.87
2023-02-13T01:09:49.864Z,-6.84
2023-02-13T01:12:23.073Z,-6.83
2023-02-13T01:14:56.359Z,-6.83
2023-02-13T01:17:29.695Z,-6.80
2023-02-13T01:20:03.125Z,-6.78
2023-02-13T01:22:36.082Z,-6.75
2023-02-13T01:25:10.558Z,-6.72
2023-02-13T01:27:43.677Z,-6.70
2023-02-13T01:30:18.738Z,-6.71
2023-02-13T01:32:51.845Z,-6.71
2023-02-13T01:35:24.843Z,-6.70
2023-02-13T01:37:58.985Z,-6.67
2023-02-13T01:40:32.245Z,-6.64
2023-02-13T01:43:09.371Z,-6.60
2023-02-13T01:45:43.695Z,-6.54
2023-02-13T01:48:19.866Z,-6.52
2023-02-13T01:50:56.409Z,-6.56
2023-02-13T01:53:33.122Z,-6.64
2023-02-13T01:56:09.267Z,-6.69
2023-02-13T01:58:45.380Z,-6.70
2023-02-13T02:01:18.846Z,-6.73
2023-02-13T02:03:56.676Z,-6.75
2023-02-13T02:06:32.675Z,-6.75
2023-02-13T02:09:09.007Z,-6.74
2023-02-13T02:11:46.143Z,-6.70
2023-02-13T02:14:20.206Z,-6.69
2023-02-13T02:16:54.061Z,-6.66
2023-02-13T02:19:33.078Z,-6.64
2023-02-13T02:22:32.744Z,-6.60
2023-02-13T02:25:35.774Z,-6.60
2023-02-13T02:32:01.557Z,-6.47
2023-02-13T02:34:39.198Z,-6.58
2023-02-13T02:37:15.441Z,-6.60
2023-02-13T02:39:53.219Z,-6.55
2023-02-13T02:42:31.479Z,-6.55
2023-02-13T02:45:07.984Z,-6.51
2023-02-13T02:48:02.864Z,-6.47
2023-02-13T02:50:42.543Z,-6.45
2023-02-13T02:53:22.124Z,-6.41
2023-02-13T02:55:58.422Z,-6.43
2023-02-13T02:58:52.375Z,-6.41
2023-02-13T03:01:47.020Z,-6.41
2023-02-13T03:04:40.994Z,-6.42
2023-02-13T03:07:16.688Z,-6.41
2023-02-13T03:10:10.845Z,-6.40
2023-02-13T03:13:05.012Z,-6.36
2023-02-13T03:15:41.868Z,-6.37
2023-02-13T03:18:32.574Z,-6.36
2023-02-13T03:21:26.182Z,-6.34
2023-02-13T03:24:02.204Z,-6.38
2023-02-13T03:26:50.802Z,-6.40
2023-02-13T03:29:51.006Z,-6.37
2023-02-13T03:32:28.083Z,-6.36
2023-02-13T03:35:22.223Z,-6.34
2023-02-13T03:37:58.306Z,-6.29
2023-02-13T03:40:34.895Z,-6.24
2023-02-13T03:43:11.395Z,-6.20
2023-02-13T03:45:57.522Z,-6.13
2023-02-13T03:48:51.055Z,-6.09
2023-02-13T03:51:27.618Z,-6.03
2023-02-13T03:54:03.649Z,-5.99
2023-02-13T03:56:56.827Z,-5.92
2023-02-13T03:59:33.411Z,-5.86
2023-02-13T04:02:10.443Z,-5.82
2023-02-13T04:04:47.733Z,-5.77
2023-02-13T04:07:32.193Z,-5.69
2023-02-13T04:10:08.545Z,-5.64
2023-02-13T04:12:45.417Z,-5.61
2023-02-13T04:15:21.450Z,-5.59
2023-02-13T04:17:58.110Z,-5.59
2023-02-13T04:20:32.878Z,-5.60
2023-02-13T04:23:09.742Z,-5.61
2023-02-13T04:25:45.666Z,-5.61
2023-02-13T04:28:19.306Z,-5.61
2023-02-13T04:30:52.632Z,-5.59
2023-02-13T04:33:25.985Z,-5.56
2023-02-13T04:35:59.190Z,-5.54
2023-02-13T04:38:32.433Z,-5.50
2023-02-13T04:41:05.644Z,-5.44
2023-02-13T04:43:38.907Z,-5.43
2023-02-13T04:46:12.154Z,-5.40
2023-02-13T04:48:45.393Z,-5.36
2023-02-13T04:51:18.551Z,-5.34
2023-02-13T04:53:51.357Z,-5.29
2023-02-13T04:56:24.529Z,-5.23
2023-02-13T04:58:58.439Z,-5.21
2023-02-13T05:01:32.043Z,-5.20
2023-02-13T05:04:05.916Z,-5.13
2023-02-13T05:06:39.325Z,-5.06
2023-02-13T05:09:13.387Z,-5.03
2023-02-13T05:11:46.756Z,-5.04
2023-02-13T05:14:20.187Z,-5.03
2023-02-13T05:16:53.349Z,-5.05
2023-02-13T05:19:26.741Z,-5.04
2023-02-13T05:22:17.399Z,-5.03
2023-02-13T05:24:50.525Z,-4.99
2023-02-13T05:27:23.812Z,-4.97
2023-02-13T05:29:56.949Z,-4.92
2023-02-13T05:32:30.198Z,-4.91
2023-02-13T05:35:04.653Z,-4.93
2023-02-13T05:37:37.982Z,-4.89
2023-02-13T05:40:14.172Z,-4.84
2023-02-13T05:42:47.225Z,-4.82
2023-02-13T05:45:20.620Z,-4.80
2023-02-13T05:47:53.819Z,-4.80
2023-02-13T05:50:27.277Z,-4.79
2023-02-13T05:53:01.204Z,-4.79
2023-02-13T05:55:34.553Z,-4.75
2023-02-13T05:58:09.469Z,-4.71
2023-02-13T06:00:42.624Z,-4.69
2023-02-13T06:03:16.029Z,-4.71
2023-02-13T06:05:49.369Z,-4.68
2023-02-13T06:08:23.123Z,-4.64
2023-02-13T06:10:56.526Z,-4.63
2023-02-13T06:13:29.838Z,-4.58
2023-02-13T06:16:02.986Z,-4.50
2023-02-13T06:18:36.796Z,-4.46
2023-02-13T06:21:10.794Z,-4.40
2023-02-13T06:23:44.032Z,-4.36
2023-02-13T06:26:19.677Z,-4.32
2023-02-13T06:28:53.118Z,-4.32
2023-02-13T06:31:27.006Z,-4.27
2023-02-13T06:34:00.319Z,-4.24
2023-02-13T06:36:33.379Z,-4.16
2023-02-13T06:39:07.255Z,-4.07
2023-02-13T06:41:40.733Z,-4.05
2023-02-13T06:44:13.893Z,-4.02
2023-02-13T06:46:47.643Z,-4.01
2023-02-13T06:49:21.011Z,-3.95
2023-02-13T06:51:54.530Z,-3.87
2023-02-13T06:54:44.657Z,-3.80
2023-02-13T06:57:03.186Z,-3.71
2023-02-13T06:59:36.651Z,-3.73
2023-02-13T07:02:11.421Z,-3.71
2023-02-13T07:04:46.538Z,-3.68
2023-02-13T07:07:20.247Z,-3.71
2023-02-13T07:09:53.286Z,-3.66
2023-02-13T07:12:26.895Z,-3.62
2023-02-13T07:15:00.301Z,-3.54
2023-02-13T07:17:35.210Z,-3.53
2023-02-13T07:20:10.937Z,-3.51
2023-02-13T07:22:44.059Z,-3.42
2023-02-13T07:25:18.831Z,-3.30
2023-02-13T07:27:52.388Z,-3.22
2023-02-13T07:30:25.613Z,-3.13
2023-02-13T07:33:02.543Z,-3.05
2023-02-13T07:35:37.901Z,-2.98
2023-02-13T07:38:11.028Z,-2.86
2023-02-13T07:40:44.325Z,-2.73
2023-02-13T07:43:17.657Z,-2.68
2023-02-13T07:45:52.713Z,-2.62
2023-02-13T07:48:27.383Z,-2.60
2023-02-13T07:51:04.383Z,-2.57
2023-02-13T07:53:37.860Z,-2.59
2023-02-13T07:56:12.724Z,-2.54
2023-02-13T07:58:46.404Z,-2.55
2023-02-13T08:01:20.459Z,-2.54
2023-02-13T08:03:53.954Z,-2.53
2023-02-13T08:06:27.742Z,-2.45
2023-02-13T08:09:18.469Z,-2.47
2023-02-13T08:11:55.377Z,-2.41
2023-02-13T08:14:29.751Z,-2.35
2023-02-13T08:17:03.435Z,-2.36
2023-02-13T08:19:36.672Z,-2.29
2023-02-13T08:22:10.563Z,-2.29
2023-02-13T08:24:43.833Z,-2.30
2023-02-13T08:27:17.915Z,-2.26
2023-02-13T08:29:52.602Z,-2.21
2023-02-13T08:32:26.555Z,-2.19
2023-02-13T08:35:00.022Z,-2.12
2023-02-13T08:37:34.581Z,-2.06
2023-02-13T08:40:10.976Z,-2.01
2023-02-13T08:42:44.768Z,-1.97
2023-02-13T08:45:18.447Z,-1.97
2023-02-13T08:47:51.732Z,-2.09
2023-02-13T08:50:25.493Z,-2.05
2023-02-13T08:52:59.148Z,-2.00
2023-02-13T08:55:32.358Z,-2.03
2023-02-13T08:58:06.495Z,-2.03
2023-02-13T09:00:39.978Z,-2.01
2023-02-13T09:03:13.568Z,-2.01
2023-02-13T09:05:48.177Z,-2.02
2023-02-13T09:08:21.738Z,-1.96
2023-02-13T09:11:01.099Z,-1.91
2023-02-13T09:13:37.336Z,-1.88
2023-02-13T09:16:12.074Z,-1.78
2023-02-13T09:18:45.240Z,-1.72
2023-02-13T09:21:19.385Z,-1.61
2023-02-13T09:23:53.311Z,-1.44
2023-02-13T09:26:27.083Z,-1.24
2023-02-13T09:29:00.626Z,-1.12
2023-02-13T09:31:34.303Z,-1.05
2023-02-13T09:34:07.732Z,-0.96
2023-02-13T09:36:41.172Z,-0.79
2023-02-13T09:39:14.813Z,-0.63
2023-02-13T09:44:39.133Z,-0.37
2023-02-13T09:47:17.458Z,-0.44
2023-02-13T09:49:53.881Z,-0.35
2023-02-13T09:52:29.766Z,-0.37
2023-02-13T09:55:06.282Z,-0.43
2023-02-13T09:57:42.370Z,-0.48
2023-02-13T10:00:20.286Z,-0.53
2023-02-13T10:03:22.110Z,-0.64
2023-02-13T10:06:00.867Z,-0.68
2023-02-13T10:08:41.084Z,-0.77
2023-02-13T10:11:25.428Z,-0.84
2023-02-13T10:14:05.720Z,-0.79
2023-02-13T10:16:42.011Z,-0.79
2023-02-13T10:19:20.990Z,-0.78
2023-02-13T10:21:57.581Z,-0.71
2023-02-13T10:24:35.449Z,-0.63
2023-02-13T10:27:13.383Z,-0.58
2023-02-13T10:30:09.817Z,-0.46
2023-02-13T10:32:51.003Z,-0.27
2023-02-13T10:35:28.282Z,-0.12
2023-02-13T10:38:04.207Z,0.13
2023-02-13T10:40:41.348Z,0.24
2023-02-13T10:43:17.968Z,0.26
2023-02-13T10:46:00.893Z,0.22
2023-02-13T10:49:06.824Z,0.24
2023-02-13T10:54:30.729Z,0.49
2023-02-13T10:57:09.371Z,0.36
2023-02-13T11:00:02.001Z,0.29
2023-02-13T11:02:37.177Z,0.20
2023-02-13T11:05:17.511Z,0.16
2023-02-13T11:07:51.563Z,0.19
2023-02-13T11:10:27.354Z,0.37
2023-02-13T11:13:03.637Z,0.65
2023-02-13T11:15:37.397Z,0.93
2023-02-13T11:18:18.652Z,0.91
2023-02-13T11:21:00.131Z,0.72
2023-02-13T11:23:45.670Z,0.61
2023-02-13T11:26:25.304Z,0.51
2023-02-13T11:29:02.075Z,0.43
2023-02-13T11:31:37.209Z,0.40
2023-02-13T11:34:27.273Z,0.38
2023-02-13T11:37:19.054Z,0.31
2023-02-13T11:39:54.450Z,0.27
2023-02-13T11:42:33.837Z,0.23
2023-02-13T11:45:09.880Z,0.24
2023-02-13T11:47:44.539Z,0.28
2023-02-13T11:50:27.375Z,0.32
2023-02-13T11:53:03.440Z,0.45
2023-02-13T11:55:38.578Z,0.56
2023-02-13T11:58:26.272Z,0.66
2023-02-13T12:01:05.168Z,0.68
2023-02-13T12:03:39.349Z,0.72
2023-02-13T12:06:18.610Z,0.68
2023-02-13T12:08:52.949Z,0.61
2023-02-13T12:11:29.129Z,0.52
2023-02-13T12:14:04.430Z,0.57
2023-02-13T12:16:41.283Z,0.58
2023-02-13T12:19:17.880Z,0.56
2023-02-13T12:21:59.383Z,0.55
2023-02-13T12:24:41.726Z,0.54
2023-02-13T12:27:19.451Z,0.58
2023-02-13T12:30:04.017Z,0.68
2023-02-13T12:32:43.061Z,0.82
2023-02-13T12:35:34.130Z,0.87
2023-02-13T12:38:11.586Z,0.78
2023-02-13T12:41:16.049Z,0.74
2023-02-13T12:44:21.359Z,0.74
2023-02-13T12:47:00.607Z,0.72
2023-02-13T12:53:03.394Z,0.90
2023-02-13T12:55:47.688Z,0.79
2023-02-13T12:58:44.558Z,0.78
2023-02-13T13:01:23.830Z,0.83
2023-02-13T13:04:04.279Z,0.85
2023-02-13T13:06:57.473Z,0.82
2023-02-13T13:09:43.245Z,0.80
2023-02-13T13:12:35.127Z,0.78
2023-02-13T13:15:12.618Z,0.79
2023-02-13T13:17:54.101Z,0.78
2023-02-13T13:20:43.810Z,0.78
2023-02-13T13:23:20.341Z,0.78
2023-02-13T13:26:00.529Z,0.77
2023-02-13T13:28:37.147Z,0.76
2023-02-13T13:31:12.028Z,0.76
2023-02-13T13:33:47.534Z,0.72
2023-02-13T13:36:27.696Z,0.73
2023-02-13T13:39:05.446Z,0.72
2023-02-13T13:41:42.801Z,0.71
2023-02-13T13:44:26.729Z,0.74
2023-02-13T13:47:03.326Z,0.72
2023-02-13T13:49:44.638Z,0.75
2023-02-13T13:52:27.364Z,0.75
2023-02-13T13:55:02.900Z,0.66
2023-02-13T13:58:01.682Z,0.67
2023-02-13T14:00:36.858Z,0.64
2023-02-13T14:03:26.455Z,0.55
2023-02-13T14:06:19.506Z,0.49
2023-02-13T14:09:15.657Z,0.44
2023-02-13T14:11:49.497Z,0.39
2023-02-13T14:14:59.921Z,0.38
2023-02-13T14:17:54.658Z,0.38
2023-02-13T14:20:39.615Z,0.33
2023-02-13T14:23:21.452Z,0.29
2023-02-13T14:26:12.621Z,0.26
2023-02-13T14:28:48.254Z,0.25
2023-02-13T14:31:24.588Z,0.27
2023-02-13T14:34:01.283Z,0.30
2023-02-13T14:36:36.802Z,0.26
2023-02-13T14:39:13.489Z,0.25
2023-02-13T14:42:01.095Z,0.24
2023-02-13T14:44:35.227Z,0.26
2023-02-13T14:47:14.994Z,0.34
2023-02-13T14:49:50.105Z,0.27
2023-02-13T14:52:27.828Z,0.29
2023-02-13T14:55:01.608Z,0.30
2023-02-13T14:57:39.320Z,0.33
2023-02-13T15:00:17.619Z,0.31
2023-02-13T15:02:54.314Z,0.32
2023-02-13T15:05:30.446Z,0.33
2023-02-13T15:08:09.032Z,0.32
2023-02-13T15:10:47.278Z,0.35
2023-02-13T15:13:23.596Z,0.38
2023-02-13T15:15:59.635Z,0.37
2023-02-13T15:18:37.392Z,0.40
2023-02-13T15:21:15.521Z,0.36
2023-02-13T15:23:52.350Z,0.38
2023-02-13T15:26:29.080Z,0.34
2023-02-13T15:29:05.837Z,0.33
2023-02-13T15:31:39.395Z,0.32
2023-02-13T15:34:25.143Z,0.33
2023-02-13T15:36:59.206Z,0.37
2023-02-13T15:39:33.533Z,0.37
2023-02-13T15:42:07.278Z,0.36
2023-02-13T15:44:41.945Z,0.35
2023-02-13T15:47:21.312Z,0.32
2023-02-13T15:49:55.266Z,0.37
2023-02-13T15:52:33.446Z,0.35
2023-02-13T15:55:08.141Z,0.31
2023-02-13T15:57:42.346Z,0.29
2023-02-13T16:00:21.517Z,0.30
2023-02-13T16:02:57.321Z,0.29
2023-02-13T16:05:39.868Z,0.30
2023-02-13T16:08:31.111Z,0.29
2023-02-13T16:14:21.871Z,0.46
2023-02-13T16:16:58.177Z,0.34
2023-02-13T16:19:38.875Z,0.35
2023-02-13T16:22:23.137Z,0.38
2023-02-13T16:24:59.022Z,0.38
2023-02-13T16:27:33.871Z,0.41
2023-02-13T16:30:10.942Z,0.45
2023-02-13T16:32:44.595Z,0.43
2023-02-13T16:35:31.216Z,0.43
2023-02-13T16:38:05.623Z,0.48
2023-02-13T16:40:42.221Z,0.49
2023-02-13T16:43:40.442Z,0.52
2023-02-13T16:46:36.377Z,0.52
2023-02-13T16:49:20.943Z,0.52
2023-02-13T16:52:00.750Z,0.43
2023-02-13T16:54:50.368Z,0.57
2023-02-13T16:57:31.028Z,0.53
2023-02-13T17:00:09.861Z,0.58
2023-02-13T17:02:43.489Z,0.59
2023-02-13T17:05:23.226Z,0.58
2023-02-13T17:07:58.054Z,0.57
2023-02-13T17:10:34.149Z,0.62
2023-02-13T17:13:13.306Z,0.63
2023-02-13T17:15:48.519Z,0.61
2023-02-13T17:18:22.243Z,0.61
2023-02-13T17:21:35.946Z,0.63
2023-02-13T17:24:13.916Z,0.64
2023-02-13T17:26:47.635Z,0.62
2023-02-13T17:29:20.939Z,0.64
2023-02-13T17:32:07.976Z,0.65
2023-02-13T17:34:52.997Z,0.61
2023-02-13T17:37:28.558Z,0.63
2023-02-13T17:40:02.430Z,0.62
2023-02-13T17:42:37.483Z,0.64
2023-02-13T17:45:14.372Z,0.63
2023-02-13T17:47:48.210Z,0.63
2023-02-13T17:50:22.706Z,0.62
2023-02-13T17:52:57.093Z,0.61
2023-02-13T17:55:32.544Z,0.65
2023-02-13T17:58:06.411Z,0.63
2023-02-13T18:00:40.170Z,0.58
2023-02-13T18:03:14.681Z,0.64
2023-02-13T18:05:50.464Z,0.64
2023-02-13T18:08:24.179Z,0.64
2023-02-13T18:10:58.662Z,0.64
2023-02-13T18:13:32.667Z,0.67
2023-02-13T18:16:10.605Z,0.65
2023-02-13T18:18:44.231Z,0.65
2023-02-13T18:21:18.004Z,0.66
2023-02-13T18:23:54.630Z,0.65
2023-02-13T18:26:27.838Z,0.69
2023-02-13T18:29:01.285Z,0.61
2023-02-13T18:31:34.898Z,0.69
2023-02-13T18:34:08.505Z,0.67
2023-02-13T18:36:42.124Z,0.67
2023-02-13T18:39:16.011Z,0.68
2023-02-13T18:41:49.827Z,0.68
2023-02-13T18:44:28.441Z,0.69
2023-02-13T18:46:58.471Z,0.67
2023-02-13T18:49:31.995Z,0.65
2023-02-13T18:52:05.690Z,0.67
2023-02-13T18:54:39.688Z,0.67
2023-02-13T18:57:13.298Z,0.69
2023-02-13T18:59:46.666Z,0.70
2023-02-13T19:02:20.405Z,0.68
2023-02-13T19:04:53.757Z,0.71
2023-02-13T19:07:27.202Z,0.71
2023-02-13T19:10:00.666Z,0.68
2023-02-13T19:12:34.109Z,0.68
2023-02-13T19:15:08.219Z,0.72
2023-02-13T19:17:41.712Z,0.70
2023-02-13T19:20:17.024Z,0.72
2023-02-13T19:22:55.243Z,0.68
2023-02-13T19:25:28.577Z,0.72
2023-02-13T19:28:02.040Z,0.71
2023-02-13T19:30:35.551Z,0.73
2023-02-13T19:33:08.645Z,0.76
2023-02-13T19:35:42.835Z,0.76
2023-02-13T19:38:16.357Z,0.77
2023-02-13T19:40:49.595Z,0.74
2023-02-13T19:43:23.206Z,0.77
2023-02-13T19:45:58.558Z,0.76
2023-02-13T19:48:32.126Z,0.77
2023-02-13T19:51:10.227Z,0.78
2023-02-13T19:53:43.717Z,0.79
2023-02-13T19:56:17.535Z,0.80
2023-02-13T19:58:50.986Z,0.78
2023-02-13T20:01:26.136Z,0.81
2023-02-13T20:04:00.142Z,0.82
2023-02-13T20:06:36.820Z,0.86
2023-02-13T20:09:12.202Z,0.89
2023-02-13T20:11:46.211Z,0.93
2023-02-13T20:14:19.817Z,0.92
2023-02-13T20:16:53.019Z,0.91
2023-02-13T20:19:27.897Z,0.91
2023-02-13T20:22:01.870Z,0.92
2023-02-13T20:24:35.526Z,0.93
2023-02-13T20:27:10.568Z,0.89
2023-02-13T20:29:45.074Z,0.92
2023-02-13T20:32:18.534Z,0.90
2023-02-13T20:34:59.546Z,0.87
2023-02-13T20:37:27.381Z,0.92
2023-02-13T20:40:00.920Z,0.81
2023-02-13T20:42:38.540Z,0.75
2023-02-13T20:45:12.829Z,0.75
2023-02-13T20:47:47.353Z,0.76
2023-02-13T20:50:20.812Z,0.74
2023-02-13T20:52:54.338Z,0.74
2023-02-13T20:55:28.046Z,0.72
2023-02-13T20:58:01.588Z,0.72
2023-02-13T21:00:35.291Z,0.69
2023-02-13T21:03:09.057Z,0.68
2023-02-13T21:05:45.751Z,0.65
2023-02-13T21:08:19.244Z,0.64
2023-02-13T21:10:52.766Z,0.71
2023-02-13T21:13:26.152Z,0.76
2023-02-13T21:16:09.000Z,0.81
2023-02-13T21:18:43.137Z,0.87
2023-02-13T21:21:17.384Z,0.88
2023-02-13T21:23:52.444Z,0.89
2023-02-13T21:26:26.392Z,0.90
2023-02-13T21:29:00.471Z,0.90
2023-02-13T21:31:36.271Z,0.88
2023-02-13T21:34:12.184Z,0.86
2023-02-13T21:36:47.314Z,0.89
2023-02-13T21:39:20.689Z,0.93
2023-02-13T21:41:54.130Z,0.94
2023-02-13T21:44:27.990Z,0.92
2023-02-13T21:47:01.601Z,0.89
2023-02-13T21:49:35.955Z,0.84
2023-02-13T21:52:09.320Z,0.79
2023-02-13T21:54:43.019Z,0.78
2023-02-13T21:57:16.277Z,0.79
2023-02-13T21:59:49.761Z,0.77
2023-02-13T22:02:23.533Z,0.76
2023-02-13T22:04:57.107Z,0.74
2023-02-13T22:07:30.534Z,0.61
2023-02-13T22:10:04.012Z,0.57
2023-02-13T22:12:36.755Z,0.56
2023-02-13T22:15:11.269Z,0.57
2023-02-13T22:17:44.713Z,0.61
2023-02-13T22:20:19.008Z,0.60
2023-02-13T22:22:52.636Z,0.58
2023-02-13T22:25:26.094Z,0.58
2023-02-13T22:27:59.441Z,0.61
2023-02-13T22:30:33.098Z,0.63
2023-02-13T22:33:07.084Z,0.69
2023-02-13T22:35:41.396Z,0.73
2023-02-13T22:38:15.192Z,0.73
2023-02-13T22:40:48.483Z,0.64
2023-02-13T22:43:22.011Z,0.68
2023-02-13T22:45:55.582Z,0.68
2023-02-13T22:48:29.186Z,0.68
2023-02-13T22:51:06.089Z,0.72
2023-02-13T22:53:40.115Z,0.74
2023-02-13T22:56:14.191Z,0.75
2023-02-13T22:58:47.605Z,0.74
2023-02-13T23:01:22.739Z,0.75
2023-02-13T23:03:56.534Z,0.74
2023-02-13T23:06:30.212Z,0.74
2023-02-13T23:09:03.838Z,0.74
2023-02-13T23:11:54.780Z,0.74
2023-02-13T23:14:28.375Z,0.73
2023-02-13T23:17:19.703Z,0.72
2023-02-13T23:19:53.178Z,0.75
2023-02-13T23:22:26.274Z,0.76
2023-02-13T23:24:59.653Z,0.77
2023-02-13T23:27:36.225Z,0.78
2023-02-13T23:30:12.559Z,0.80
2023-02-13T23:32:46.057Z,0.82
2023-02-13T23:35:20.181Z,0.84
2023-02-13T23:37:53.673Z,0.85
2023-02-13T23:40:27.205Z,0.80
2023-02-13T23:43:00.609Z,0.77
2023-02-13T23:45:34.055Z,0.78
2023-02-13T23:48:09.874Z,0.82
2023-02-13T23:50:44.226Z,0.85
2023-02-13T23:53:17.769Z,0.85
2023-02-13T23:55:51.607Z,0.88
2023-02-13T23:58:24.944Z,0.88
